Time;durP1;ratioP1;P1;durP2;ratioP2;P2;SDS_P1;SDS_P2;PMS_P1;PMS_P2;Temp;Humidity;BMP_temperature;BMP_pressure;BME280_temperature;BME280_humidity;BME280_pressure;Samples;Min_cycle;Max_cycle;Signal;HPM_P1;HPM_P2
2022/04/04 00:01:04;;;;;;;;;;;2.30;99.90;;;;;;5006358;28;19932;-74
2022/04/04 00:03:31;;;;;;;;;;;2.30;99.90;;;;;;4986502;28;20377;-74
2022/04/04 00:05:58;;;;;;;;;;;3.10;99.90;;;;;;4989574;28;19925;-73
2022/04/04 00:08:27;;;;;;;;;;;2.30;99.90;;;;;;5002575;28;20433;-74
2022/04/04 00:10:54;;;;;;;;;;;2.30;99.90;;;;;;5020823;28;20108;-72
2022/04/04 00:13:21;;;;;;;;;;;2.30;99.90;;;;;;5024876;28;19964;-73
2022/04/04 00:15:48;;;;;;;;;;;2.30;99.90;;;;;;5018900;28;19925;-72
2022/04/04 00:18:15;;;;;;;;;;;2.20;99.90;;;;;;5016733;28;19931;-73
2022/04/04 00:20:41;;;;;;;;;;;2.20;99.90;;;;;;5020618;28;19929;-74
2022/04/04 00:23:12;;;;;;;;;;;2.20;99.90;;;;;;5018258;28;19929;-73
2022/04/04 00:25:40;;;;;;;;;;;2.20;99.90;;;;;;4996223;28;20310;-73
2022/04/04 00:28:07;;;;;;;;;;;2.20;99.90;;;;;;4990557;28;19921;-73
2022/04/04 00:30:34;;;;;;;;;;;2.20;99.90;;;;;;4995545;28;19932;-71
2022/04/04 00:33:01;;;;;;;;;;;2.10;99.90;;;;;;5013922;28;19980;-71
2022/04/04 00:35:28;;;;;;;;;;;2.10;99.90;;;;;;5025728;28;20677;-70
2022/04/04 00:37:55;;;;;;;;;;;2.10;99.90;;;;;;5022132;28;20325;-70
2022/04/04 00:40:22;;;;;;;;;;;2.10;99.90;;;;;;4995333;28;19932;-71
2022/04/04 00:42:50;;;;;;;;;;;2.10;99.90;;;;;;5023588;28;19925;-71
2022/04/04 00:45:17;;;;;;;;;;;2.50;99.90;;;;;;5021203;28;20301;-71
2022/04/04 00:47:43;;;;;;;;;;;2.00;99.90;;;;;;5018776;28;19921;-71
2022/04/04 00:50:11;;;;;;;;;;;2.00;99.90;;;;;;4999234;28;20228;-71
2022/04/04 00:52:37;;;;;;;;;;;2.00;99.90;;;;;;5000385;28;19999;-71
2022/04/04 00:55:05;;;;;;;;;;;2.00;99.90;;;;;;5005999;28;19933;-71
2022/04/04 00:57:32;;;;;;;;;;;2.00;99.90;;;;;;5018866;28;20374;-71
2022/04/04 01:00:00;;;;;;;;;;;2.00;99.90;;;;;;5006871;28;19925;-72
2022/04/04 01:02:27;;;;;;;;;;;1.90;99.90;;;;;;5002336;28;19972;-71
2022/04/04 01:04:54;;;;;;;;;;;1.90;99.90;;;;;;4982741;28;20031;-72
2022/04/04 01:07:20;;;;;;;;;;;1.90;99.90;;;;;;5022135;28;19995;-72
2022/04/04 01:09:47;;;;;;;;;;;2.00;99.90;;;;;;5015816;28;20378;-72
2022/04/04 01:12:14;;;;;;;;;;;1.90;99.90;;;;;;4994712;28;20359;-72
2022/04/04 01:14:45;;;;;;;;;;;1.90;99.90;;;;;;5003990;28;19929;-72
2022/04/04 01:17:14;;;;;;;;;;;1.90;99.90;;;;;;5004670;28;19944;-72
2022/04/04 01:19:40;;;;;;;;;;;1.90;99.90;;;;;;5015530;28;20391;-71
2022/04/04 01:22:08;;;;;;;;;;;1.90;99.90;;;;;;5000308;28;19925;-72
2022/04/04 01:24:38;;;;;;;;;;;1.80;99.90;;;;;;5020538;28;19947;-72
2022/04/04 01:27:05;;;;;;;;;;;1.80;99.90;;;;;;5019527;28;19959;-72
2022/04/04 01:29:32;;;;;;;;;;;1.80;99.90;;;;;;5020969;28;19976;-72
2022/04/04 01:31:59;;;;;;;;;;;1.80;99.90;;;;;;5023639;28;19940;-72
2022/04/04 01:34:25;;;;;;;;;;;1.90;99.90;;;;;;5017465;28;20336;-74
2022/04/04 01:36:52;;;;;;;;;;;1.80;99.90;;;;;;5007835;28;19940;-74
2022/04/04 01:39:19;;;;;;;;;;;1.80;99.90;;;;;;5014530;28;19932;-72
2022/04/04 01:41:47;;;;;;;;;;;1.90;99.90;;;;;;5016668;28;19928;-72
2022/04/04 01:44:14;;;;;;;;;;;1.80;99.90;;;;;;5016936;28;19951;-72
2022/04/04 01:46:41;;;;;;;;;;;1.80;99.90;;;;;;5006190;28;20307;-72
2022/04/04 01:49:07;;;;;;;;;;;2.30;99.90;;;;;;5023376;28;19924;-72
2022/04/04 01:51:35;;;;;;;;;;;1.80;99.90;;;;;;5022211;28;19932;-71
2022/04/04 01:54:03;;;;;;;;;;;1.80;99.90;;;;;;5019404;28;19936;-72
2022/04/04 01:56:30;;;;;;;;;;;1.80;99.90;;;;;;5028743;28;19926;-71
2022/04/04 01:58:59;;;;;;;;;;;1.80;99.90;;;;;;5009326;28;20374;-72
2022/04/04 02:01:27;;;;;;;;;;;1.80;99.90;;;;;;5025315;28;19925;-73
2022/04/04 02:03:54;;;;;;;;;;;1.70;99.90;;;;;;5013519;28;19925;-72
2022/04/04 02:06:21;;;;;;;;;;;1.90;99.90;;;;;;5021336;28;19962;-71
2022/04/04 02:08:48;;;;;;;;;;;2.10;99.90;;;;;;5006596;28;19926;-71
2022/04/04 02:11:15;;;;;;;;;;;1.90;99.90;;;;;;5013087;28;19921;-71
2022/04/04 02:13:42;;;;;;;;;;;1.80;99.90;;;;;;5016576;28;19933;-73
2022/04/04 02:16:11;;;;;;;;;;;2.10;99.90;;;;;;5023534;28;19928;-70
2022/04/04 02:18:38;;;;;;;;;;;2.20;99.90;;;;;;5015108;28;20044;-71
2022/04/04 02:21:05;;;;;;;;;;;2.20;99.90;;;;;;5019228;28;19928;-71
2022/04/04 02:23:31;;;;;;;;;;;2.20;99.90;;;;;;5017546;28;19929;-71
2022/04/04 02:25:59;;;;;;;;;;;2.40;99.90;;;;;;5000497;28;19940;-70
2022/04/04 02:28:26;;;;;;;;;;;2.40;99.90;;;;;;5009529;28;19925;-71
2022/04/04 02:30:53;;;;;;;;;;;2.40;99.90;;;;;;5018107;28;20372;-70
2022/04/04 02:33:22;;;;;;;;;;;2.40;99.90;;;;;;5020644;28;19925;-71
2022/04/04 02:35:51;;;;;;;;;;;2.60;99.90;;;;;;5018828;28;20378;-70
2022/04/04 02:38:18;;;;;;;;;;;2.50;99.90;;;;;;5010294;28;19931;-71
2022/04/04 02:40:44;;;;;;;;;;;2.70;99.90;;;;;;5004496;28;19925;-71
2022/04/04 02:43:12;;;;;;;;;;;2.60;99.90;;;;;;5007555;28;20290;-71
2022/04/04 02:45:38;;;;;;;;;;;2.60;99.90;;;;;;5006776;28;19926;-72
2022/04/04 02:48:06;;;;;;;;;;;2.50;99.90;;;;;;4996979;28;19946;-72
2022/04/04 02:50:34;;;;;;;;;;;2.50;99.90;;;;;;5012133;28;19933;-72
2022/04/04 02:53:01;;;;;;;;;;;2.70;99.90;;;;;;5002225;28;20253;-72
2022/04/04 02:58:12;;;;;;;;;;;3.10;99.90;;;;;;5005852;28;19932;-71
2022/04/04 03:00:39;;;;;;;;;;;2.60;99.90;;;;;;5004958;28;19929;-71
2022/04/04 03:03:05;;;;;;;;;;;2.70;99.90;;;;;;5020033;28;20405;-71
2022/04/04 03:05:34;;;;;;;;;;;2.70;99.90;;;;;;5020034;28;20309;-71
2022/04/04 03:08:01;;;;;;;;;;;2.70;99.90;;;;;;5017489;28;20008;-71
2022/04/04 03:10:27;;;;;;;;;;;2.70;99.90;;;;;;4999663;28;20004;-71
2022/04/04 03:12:54;;;;;;;;;;;2.70;99.90;;;;;;4984910;28;20235;-71
2022/04/04 03:15:22;;;;;;;;;;;3.00;99.90;;;;;;5001856;28;19934;-71
2022/04/04 03:17:51;;;;;;;;;;;2.60;99.90;;;;;;4995603;28;19964;-70
2022/04/04 03:20:18;;;;;;;;;;;2.60;99.90;;;;;;4998796;28;19944;-71
2022/04/04 03:22:47;;;;;;;;;;;2.60;99.90;;;;;;5022566;28;20414;-71
2022/04/04 03:25:14;;;;;;;;;;;2.50;99.90;;;;;;4987542;28;19925;-70
2022/04/04 03:27:42;;;;;;;;;;;2.50;99.90;;;;;;5006161;28;19929;-71
2022/04/04 03:30:10;;;;;;;;;;;2.40;99.90;;;;;;5010069;28;19932;-71
2022/04/04 03:32:37;;;;;;;;;;;2.50;99.90;;;;;;5003348;28;19948;-71
2022/04/04 03:35:05;;;;;;;;;;;2.40;99.90;;;;;;5007847;28;20004;-71
2022/04/04 03:37:32;;;;;;;;;;;2.50;99.90;;;;;;5016150;28;20433;-70
2022/04/04 03:40:00;;;;;;;;;;;2.50;99.90;;;;;;5017244;28;19944;-71
2022/04/04 03:42:26;;;;;;;;;;;2.50;99.90;;;;;;5011334;28;19928;-71
2022/04/04 03:44:53;;;;;;;;;;;2.50;99.90;;;;;;5017169;28;20369;-71
2022/04/04 03:47:21;;;;;;;;;;;2.50;99.90;;;;;;5010132;28;19972;-71
2022/04/04 03:49:48;;;;;;;;;;;2.60;99.90;;;;;;5013697;28;20246;-71
2022/04/04 03:52:15;;;;;;;;;;;2.50;99.90;;;;;;5024029;28;19932;-70
2022/04/04 03:54:42;;;;;;;;;;;2.50;99.90;;;;;;5022277;28;19927;-70
2022/04/04 03:57:10;;;;;;;;;;;2.70;99.90;;;;;;5017474;28;20217;-71
2022/04/04 03:59:37;;;;;;;;;;;2.60;99.90;;;;;;5014722;28;20019;-71
2022/04/04 04:02:04;;;;;;;;;;;2.50;99.90;;;;;;5021525;28;19932;-71
2022/04/04 04:04:31;;;;;;;;;;;2.50;99.90;;;;;;5017106;28;19921;-71
2022/04/04 04:06:57;;;;;;;;;;;2.50;99.90;;;;;;5022782;28;19925;-71
2022/04/04 04:09:24;;;;;;;;;;;3.00;99.90;;;;;;5019602;28;19929;-72
2022/04/04 04:11:51;;;;;;;;;;;2.40;99.90;;;;;;5015636;28;19932;-72
2022/04/04 04:14:19;;;;;;;;;;;2.40;99.90;;;;;;5016056;28;19932;-71
2022/04/04 04:16:46;;;;;;;;;;;2.40;99.90;;;;;;5022149;28;19932;-71
2022/04/04 04:21:53;;;;;;;;;;;2.50;99.90;;;;;;5012098;28;20012;-74
2022/04/04 04:24:20;;;;;;;;;;;2.70;99.90;;;;;;5017832;28;19932;-73
2022/04/04 04:26:47;;;;;;;;;;;2.40;99.90;;;;;;5016120;28;19922;-75
2022/04/04 04:29:13;;;;;;;;;;;2.50;99.90;;;;;;4998084;28;19939;-73
2022/04/04 04:31:41;;;;;;;;;;;3.20;99.90;;;;;;5024910;28;19929;-74
2022/04/04 04:34:08;;;;;;;;;;;2.60;99.90;;;;;;5020334;28;19983;-75
2022/04/04 04:36:36;;;;;;;;;;;2.60;99.90;;;;;;5020900;28;19928;-72
2022/04/04 04:39:03;;;;;;;;;;;2.70;99.90;;;;;;5014697;28;19948;-71
2022/04/04 04:41:30;;;;;;;;;;;2.70;99.90;;;;;;5008961;28;19933;-72
2022/04/04 04:43:57;;;;;;;;;;;2.70;99.90;;;;;;5006349;28;20112;-70
2022/04/04 04:46:23;;;;;;;;;;;2.80;99.90;;;;;;5014775;28;19948;-71
2022/04/04 04:48:51;;;;;;;;;;;2.80;99.90;;;;;;5020054;28;19948;-73
2022/04/04 04:51:18;;;;;;;;;;;2.80;99.90;;;;;;4990534;28;19952;-74
2022/04/04 04:53:45;;;;;;;;;;;2.90;99.90;;;;;;5018438;28;20023;-73
2022/04/04 04:56:11;;;;;;;;;;;2.90;99.90;;;;;;5020230;28;19932;-73
2022/04/04 04:58:38;;;;;;;;;;;2.90;99.90;;;;;;5000681;28;19967;-74
2022/04/04 05:01:05;;;;;;;;;;;2.90;99.90;;;;;;5016412;28;19929;-73
2022/04/04 05:03:31;;;;;;;;;;;2.90;99.90;;;;;;5020330;28;19925;-73
2022/04/04 05:06:00;;;;;;;;;;;2.90;99.90;;;;;;5011470;28;19922;-73
2022/04/04 05:08:26;;;;;;;;;;;2.90;99.90;;;;;;5010872;28;19951;-73
2022/04/04 05:10:53;;;;;;;;;;;3.00;99.90;;;;;;5008789;28;19955;-73
2022/04/04 05:13:21;;;;;;;;;;;3.00;99.90;;;;;;5017466;28;20256;-71
2022/04/04 05:15:48;;;;;;;;;;;3.10;99.90;;;;;;5011189;28;20417;-70
2022/04/04 05:18:15;;;;;;;;;;;3.10;99.90;;;;;;5002075;28;20414;-70
2022/04/04 05:20:42;;;;;;;;;;;3.10;99.90;;;;;;5007410;28;20008;-70
2022/04/04 05:23:11;;;;;;;;;;;2.90;99.90;;;;;;4998522;28;19930;-73
2022/04/04 05:25:37;;;;;;;;;;;3.30;99.90;;;;;;5012838;28;20020;-70
2022/04/04 05:28:05;;;;;;;;;;;3.50;99.90;;;;;;5001017;28;19932;-70
2022/04/04 05:30:32;;;;;;;;;;;3.40;99.90;;;;;;4991796;28;20302;-70
2022/04/04 05:32:59;;;;;;;;;;;3.50;99.90;;;;;;5016537;28;19934;-70
2022/04/04 05:35:26;;;;;;;;;;;3.50;99.90;;;;;;5014852;28;19925;-70
2022/04/04 05:37:54;;;;;;;;;;;3.70;99.90;;;;;;5007181;28;19931;-70
2022/04/04 05:40:22;;;;;;;;;;;3.50;99.90;;;;;;4992635;28;20020;-70
2022/04/04 05:42:49;;;;;;;;;;;3.80;99.90;;;;;;5024746;28;20333;-70
2022/04/04 05:45:16;;;;;;;;;;;3.80;99.90;;;;;;5020867;28;19933;-70
2022/04/04 05:47:42;;;;;;;;;;;3.80;99.90;;;;;;5028086;28;20019;-72
2022/04/04 05:50:09;;;;;;;;;;;4.10;99.90;;;;;;5023964;28;19929;-72
2022/04/04 05:52:36;;;;;;;;;;;4.00;99.90;;;;;;5001830;28;19925;-72
2022/04/04 05:55:03;;;;;;;;;;;4.10;99.90;;;;;;5006716;28;19925;-73
2022/04/04 05:57:32;;;;;;;;;;;4.20;99.90;;;;;;5018453;28;20008;-73
2022/04/04 05:59:59;;;;;;;;;;;4.30;99.90;;;;;;5012818;28;19922;-73
2022/04/04 06:02:26;;;;;;;;;;;4.40;99.90;;;;;;5022847;28;20251;-73
2022/04/04 06:04:53;;;;;;;;;;;4.50;99.90;;;;;;5005702;28;19925;-73
2022/04/04 06:07:20;;;;;;;;;;;4.50;99.90;;;;;;5023012;28;19925;-74
2022/04/04 06:09:46;;;;;;;;;;;4.70;99.90;;;;;;5009715;28;19921;-74
2022/04/04 06:12:13;;;;;;;;;;;4.70;99.90;;;;;;5023906;28;19932;-72
2022/04/04 06:14:41;;;;;;;;;;;4.80;99.90;;;;;;5023040;28;19936;-72
2022/04/04 06:17:08;;;;;;;;;;;4.80;99.90;;;;;;5019832;28;19947;-72
2022/04/04 06:19:35;;;;;;;;;;;4.90;99.90;;;;;;5015408;28;20408;-71
2022/04/04 06:22:03;;;;;;;;;;;5.10;99.90;;;;;;5016364;28;20578;-72
2022/04/04 06:24:31;;;;;;;;;;;5.30;99.90;;;;;;4999011;28;20338;-72
2022/04/04 06:26:57;;;;;;;;;;;5.40;99.90;;;;;;5021750;28;20041;-71
2022/04/04 06:29:24;;;;;;;;;;;5.50;99.90;;;;;;5014346;28;19933;-72
2022/04/04 06:31:52;;;;;;;;;;;5.80;99.90;;;;;;5011630;28;19925;-72
2022/04/04 06:34:19;;;;;;;;;;;6.30;99.90;;;;;;5017779;28;19925;-72
2022/04/04 06:36:46;;;;;;;;;;;6.80;99.90;;;;;;5017722;28;19936;-72
2022/04/04 06:39:13;;;;;;;;;;;7.70;99.90;;;;;;5018222;28;19926;-69
2022/04/04 06:41:40;;;;;;;;;;;8.00;99.90;;;;;;5002529;28;19929;-69
2022/04/04 06:44:08;;;;;;;;;;;8.30;99.90;;;;;;5024126;28;20004;-70
2022/04/04 06:46:36;;;;;;;;;;;8.60;99.90;;;;;;5019798;28;20034;-70
2022/04/04 06:49:04;;;;;;;;;;;8.90;99.90;;;;;;5025341;28;19928;-70
2022/04/04 06:51:30;;;;;;;;;;;9.50;99.90;;;;;;5023345;28;19925;-71
2022/04/04 06:53:57;;;;;;;;;;;8.70;99.90;;;;;;5002588;28;19944;-71
2022/04/04 06:56:24;;;;;;;;;;;9.20;99.90;;;;;;4995889;28;20031;-71
2022/04/04 06:58:51;;;;;;;;;;;9.00;99.90;;;;;;5007011;28;19921;-71
2022/04/04 07:01:18;;;;;;;;;;;8.80;99.90;;;;;;4998601;28;19931;-70
2022/04/04 07:03:45;;;;;;;;;;;8.60;99.90;;;;;;4995618;28;20401;-73
2022/04/04 07:06:13;;;;;;;;;;;8.50;99.90;;;;;;4997070;28;19929;-73
2022/04/04 07:08:40;;;;;;;;;;;8.40;99.90;;;;;;4997373;28;19960;-73
2022/04/04 07:11:10;;;;;;;;;;;8.40;99.90;;;;;;4997489;28;19921;-74
2022/04/04 07:13:37;;;;;;;;;;;8.50;99.90;;;;;;5005368;28;19945;-72
2022/04/04 07:16:03;;;;;;;;;;;8.40;99.90;;;;;;5010002;28;20302;-72
2022/04/04 07:18:30;;;;;;;;;;;8.40;99.90;;;;;;5010008;28;20338;-73
2022/04/04 07:20:57;;;;;;;;;;;8.40;99.90;;;;;;5005977;28;19921;-74
2022/04/04 07:23:25;;;;;;;;;;;8.70;99.90;;;;;;5009482;28;20023;-73
2022/04/04 07:25:52;;;;;;;;;;;8.90;99.90;;;;;;4991085;28;19925;-73
2022/04/04 07:28:20;;;;;;;;;;;9.30;99.90;;;;;;5011117;28;19921;-73
2022/04/04 07:30:47;;;;;;;;;;;9.70;99.90;;;;;;5014452;28;20028;-74
2022/04/04 07:33:17;;;;;;;;;;;9.80;99.90;;;;;;4993225;28;19956;-74
2022/04/04 07:35:44;;;;;;;;;;;9.70;99.90;;;;;;5007404;28;20210;-75
2022/04/04 07:38:10;;;;;;;;;;;9.70;99.90;;;;;;5019638;28;19952;-74
2022/04/04 07:40:39;;;;;;;;;;;9.80;99.90;;;;;;5006342;28;19921;-72
2022/04/04 07:43:06;;;;;;;;;;;10.00;99.90;;;;;;5014200;28;20291;-72
2022/04/04 07:45:33;;;;;;;;;;;10.10;99.90;;;;;;5019992;28;20004;-72
2022/04/04 07:48:00;;;;;;;;;;;10.10;99.90;;;;;;5017936;28;20374;-73
2022/04/04 07:50:27;;;;;;;;;;;10.20;99.90;;;;;;5002808;28;19937;-72
2022/04/04 07:52:53;;;;;;;;;;;10.20;99.90;;;;;;5007519;28;19932;-73
2022/04/04 07:55:20;;;;;;;;;;;10.10;99.90;;;;;;5009124;28;19932;-70
2022/04/04 07:57:48;;;;;;;;;;;10.10;99.90;;;;;;5007492;28;19925;-71
2022/04/04 08:00:17;;;;;;;;;;;10.20;99.90;;;;;;5013453;28;19936;-71
2022/04/04 08:02:44;;;;;;;;;;;10.20;99.90;;;;;;5014934;28;19925;-71
2022/04/04 08:05:11;;;;;;;;;;;10.30;99.90;;;;;;5017580;28;19932;-71
2022/04/04 08:07:40;;;;;;;;;;;10.20;99.90;;;;;;5023587;28;19986;-74
2022/04/04 08:10:08;;;;;;;;;;;10.30;99.90;;;;;;5000812;28;20341;-71
2022/04/04 08:12:35;;;;;;;;;;;10.20;99.90;;;;;;5013667;28;19925;-73
2022/04/04 08:15:04;;;;;;;;;;;10.00;99.90;;;;;;5022807;28;19931;-72
2022/04/04 08:17:31;;;;;;;;;;;10.20;99.90;;;;;;5017949;28;19925;-70
2022/04/04 08:19:58;;;;;;;;;;;10.20;99.90;;;;;;5004668;28;20342;-70
2022/04/04 08:22:25;;;;;;;;;;;10.20;99.90;;;;;;4995143;28;20383;-70
2022/04/04 08:24:51;;;;;;;;;;;9.90;99.90;;;;;;5015586;28;19921;-70
2022/04/04 08:27:18;;;;;;;;;;;9.90;99.90;;;;;;5016799;28;19925;-75
2022/04/04 08:29:45;;;;;;;;;;;9.80;99.90;;;;;;5016804;28;19925;-73
2022/04/04 08:32:14;;;;;;;;;;;9.80;99.90;;;;;;5018181;28;19969;-73
2022/04/04 08:34:41;;;;;;;;;;;10.00;99.90;;;;;;4998441;28;20724;-72
2022/04/04 08:37:08;;;;;;;;;;;10.10;99.90;;;;;;5015454;28;19932;-75
2022/04/04 08:39:35;;;;;;;;;;;10.10;99.90;;;;;;4999424;28;20028;-73
2022/04/04 08:42:02;;;;;;;;;;;10.20;99.90;;;;;;5009022;28;19941;-71
2022/04/04 08:44:29;;;;;;;;;;;10.30;99.90;;;;;;5019145;28;19932;-72
2022/04/04 08:46:56;;;;;;;;;;;10.30;99.90;;;;;;5004014;28;20363;-73
2022/04/04 08:49:24;;;;;;;;;;;11.00;99.90;;;;;;5016483;28;19935;-76
2022/04/04 08:51:51;;;;;;;;;;;10.40;99.90;;;;;;5026754;28;19925;-74
2022/04/04 08:54:18;;;;;;;;;;;10.60;99.90;;;;;;4996952;28;19940;-74
2022/04/04 08:56:45;;;;;;;;;;;10.60;99.90;;;;;;5008475;28;20322;-71
2022/04/04 08:59:11;;;;;;;;;;;10.70;99.90;;;;;;4998563;28;19925;-71
2022/04/04 09:01:38;;;;;;;;;;;10.80;99.90;;;;;;5019359;28;19999;-71
2022/04/04 09:04:16;;;;;;;;;;;10.80;99.90;;;;;;5012880;28;20414;-70
2022/04/04 09:06:51;;;;;;;;;;;11.10;99.90;;;;;;5019402;28;20382;-71
2022/04/04 09:09:19;;;;;;;;;;;11.00;99.90;;;;;;4996027;28;19921;-71
2022/04/04 09:11:51;;;;;;;;;;;10.90;99.90;;;;;;5009340;28;20326;-71
2022/04/04 09:14:21;;;;;;;;;;;11.20;99.90;;;;;;5020353;28;20012;-71
2022/04/04 09:16:53;;;;;;;;;;;11.20;99.90;;;;;;5007693;28;19925;-71
2022/04/04 09:19:27;;;;;;;;;;;11.20;99.90;;;;;;5020936;28;19936;-73
2022/04/04 09:21:55;;;;;;;;;;;11.20;99.90;;;;;;5003790;28;19925;-75
2022/04/04 09:24:22;;;;;;;;;;;11.00;99.90;;;;;;5034485;28;19917;-76
2022/04/04 09:26:51;;;;;;;;;;;10.80;99.90;;;;;;5021370;28;19936;-73
2022/04/04 09:29:19;;;;;;;;;;;10.60;99.90;;;;;;5028867;28;19971;-75
2022/04/04 09:31:52;;;;;;;;;;;10.50;99.90;;;;;;5035868;28;20544;-76
2022/04/04 09:34:19;;;;;;;;;;;10.40;99.90;;;;;;5031953;28;19944;-71
2022/04/04 09:36:47;;;;;;;;;;;10.20;99.90;;;;;;5036242;28;20298;-71
2022/04/04 09:39:15;;;;;;;;;;;9.90;99.90;;;;;;5025506;28;20471;-71
2022/04/04 09:41:42;;;;;;;;;;;9.70;99.90;;;;;;5002935;28;19925;-70
2022/04/04 09:44:11;;;;;;;;;;;9.90;99.90;;;;;;5020669;28;19925;-71
2022/04/04 09:46:38;;;;;;;;;;;;;;;;;;5058815;22;19925;-70
2022/04/04 09:49:07;;;;;;;;;;;9.20;99.90;;;;;;5006733;28;20012;-72
2022/04/04 09:51:34;;;;;;;;;;;9.20;99.90;;;;;;5004693;28;19929;-70
2022/04/04 09:54:03;;;;;;;;;;;9.10;99.90;;;;;;5022447;28;19932;-69
2022/04/04 09:56:31;;;;;;;;;;;9.00;99.90;;;;;;5006986;28;19928;-69
2022/04/04 09:58:59;;;;;;;;;;;8.90;99.90;;;;;;5004420;28;19933;-70
2022/04/04 10:01:26;;;;;;;;;;;8.80;99.90;;;;;;5007120;28;20023;-71
2022/04/04 10:03:53;;;;;;;;;;;8.70;99.90;;;;;;4999929;28;20398;-70
2022/04/04 10:06:20;;;;;;;;;;;8.70;99.90;;;;;;4999010;28;20398;-68
2022/04/04 10:08:51;;;;;;;;;;;8.70;99.90;;;;;;5000719;28;20261;-69
2022/04/04 10:11:18;;;;;;;;;;;8.50;99.90;;;;;;5003302;28;20385;-68
2022/04/04 10:13:47;;;;;;;;;;;8.40;99.90;;;;;;4997058;28;19926;-70
2022/04/04 10:16:14;;;;;;;;;;;9.90;99.90;;;;;;5003122;28;20445;-70
2022/04/04 10:18:43;;;;;;;;;;;8.70;99.90;;;;;;4997249;28;19936;-71
2022/04/04 10:21:10;;;;;;;;;;;8.80;99.90;;;;;;4990899;28;20020;-70
2022/04/04 10:23:37;;;;;;;;;;;8.70;99.90;;;;;;4990799;28;19940;-71
2022/04/04 10:26:06;;;;;;;;;;;8.70;99.90;;;;;;4995177;28;19922;-71
2022/04/04 10:28:34;;;;;;;;;;;8.60;99.90;;;;;;4994385;28;19983;-68
2022/04/04 10:31:11;;;;;;;;;;;8.60;99.90;;;;;;5002199;28;20020;-68
2022/04/04 10:33:37;;;;;;;;;;;8.50;99.90;;;;;;4995947;28;19925;-69
2022/04/04 10:36:05;;;;;;;;;;;8.40;99.90;;;;;;4995992;28;19968;-69
2022/04/04 10:38:33;;;;;;;;;;;8.30;99.90;;;;;;5001041;28;19922;-69
2022/04/04 10:41:02;;;;;;;;;;;8.20;99.90;;;;;;5002474;28;19925;-68
2022/04/04 10:43:31;;;;;;;;;;;8.10;99.90;;;;;;4999473;28;19926;-68
2022/04/04 10:45:59;;;;;;;;;;;8.10;99.90;;;;;;4976605;28;20398;-68
2022/04/04 10:48:31;;;;;;;;;;;8.10;99.90;;;;;;5004304;28;20404;-68
2022/04/04 10:51:10;;;;;;;;;;;8.20;99.90;;;;;;4995309;28;20028;-67
2022/04/04 10:53:44;;;;;;;;;;;8.20;99.90;;;;;;5003394;28;19929;-68
2022/04/04 10:56:12;;;;;;;;;;;8.20;99.90;;;;;;4997405;28;19923;-68
2022/04/04 10:58:39;;;;;;;;;;;8.10;99.90;;;;;;4993309;28;20433;-68
2022/04/04 11:01:09;;;;;;;;;;;8.00;99.90;;;;;;4999151;28;19936;-70
2022/04/04 11:03:38;;;;;;;;;;;8.00;99.90;;;;;;4993041;28;20438;-69
2022/04/04 11:09:04;;;;;;;;;;;7.70;99.90;;;;;;4999681;28;20251;-68
2022/04/04 11:11:45;;;;;;;;;;;8.90;99.90;;;;;;4987960;28;20393;-68
2022/04/04 11:14:12;;;;;;;;;;;9.20;99.90;;;;;;4992364;28;20016;-68
2022/04/04 11:16:59;;;;;;;;;;;7.50;99.90;;;;;;5002787;28;19926;-70
2022/04/04 11:19:30;;;;;;;;;;;7.50;99.90;;;;;;4964143;28;19958;-68
2022/04/04 11:21:57;;;;;;;;;;;7.40;99.90;;;;;;4996656;28;19926;-68
2022/04/04 11:24:31;;;;;;;;;;;7.30;99.90;;;;;;5000300;28;19926;-68
2022/04/04 11:26:58;;;;;;;;;;;7.20;99.90;;;;;;4994637;28;19976;-68
2022/04/04 11:29:25;;;;;;;;;;;7.20;99.90;;;;;;4996805;28;19925;-68
2022/04/04 11:31:52;;;;;;;;;;;7.10;99.90;;;;;;4999433;28;19957;-68
2022/04/04 11:34:21;;;;;;;;;;;7.00;99.90;;;;;;4992004;28;19932;-68
2022/04/04 11:36:51;;;;;;;;;;;7.00;99.90;;;;;;4988834;28;20116;-69
2022/04/04 11:39:19;;;;;;;;;;;7.00;99.90;;;;;;4976911;28;19930;-69
2022/04/04 11:41:50;;;;;;;;;;;7.00;99.90;;;;;;5000697;28;19980;-69
2022/04/04 11:44:23;;;;;;;;;;;7.00;99.90;;;;;;4990747;28;19934;-68
2022/04/04 11:47:01;;;;;;;;;;;6.90;99.90;;;;;;4993464;28;19961;-69
2022/04/04 11:49:32;;;;;;;;;;;6.90;99.90;;;;;;4996126;28;19984;-68
2022/04/04 11:52:04;;;;;;;;;;;6.90;99.90;;;;;;4998432;28;20469;-68
2022/04/04 11:54:39;;;;;;;;;;;6.90;99.90;;;;;;4993603;28;19984;-68
2022/04/04 11:57:06;;;;;;;;;;;6.90;99.90;;;;;;5005452;28;20263;-69
2022/04/04 11:59:34;;;;;;;;;;;6.90;99.90;;;;;;4999791;28;20074;-68
2022/04/04 12:02:03;;;;;;;;;;;6.80;99.90;;;;;;5004561;28;20370;-68
2022/04/04 12:04:30;;;;;;;;;;;6.80;99.90;;;;;;5007362;28;19976;-68
2022/04/04 12:06:57;;;;;;;;;;;6.80;99.90;;;;;;5007564;28;19936;-67
2022/04/04 12:09:31;;;;;;;;;;;6.80;99.90;;;;;;4995182;28;19929;-68
2022/04/04 12:12:01;;;;;;;;;;;6.70;99.90;;;;;;4994646;28;19930;-69
2022/04/04 12:14:31;;;;;;;;;;;6.70;99.90;;;;;;4996636;28;19995;-69
2022/04/04 12:16:58;;;;;;;;;;;6.60;99.90;;;;;;4983092;28;19925;-69
2022/04/04 12:19:25;;;;;;;;;;;6.60;99.90;;;;;;4988638;28;19926;-68
2022/04/04 12:21:52;;;;;;;;;;;6.70;99.90;;;;;;4988531;28;20482;-69
2022/04/04 12:27:14;;;;;;;;;;;6.70;99.90;;;;;;4999889;28;20064;-68
2022/04/04 12:29:42;;;;;;;;;;;6.70;99.90;;;;;;5002965;28;19953;-68
2022/04/04 12:32:16;;;;;;;;;;;6.70;99.90;;;;;;4993852;28;20346;-68
2022/04/04 12:35:00;;;;;;;;;;;6.70;99.90;;;;;;5000114;28;20223;-67
2022/04/04 12:37:34;;;;;;;;;;;6.70;99.90;;;;;;4998338;28;19930;-70
2022/04/04 12:40:17;;;;;;;;;;;6.70;99.90;;;;;;5000967;28;20013;-69
2022/04/04 12:42:46;;;;;;;;;;;6.70;99.90;;;;;;4992480;28;20389;-70
2022/04/04 12:45:13;;;;;;;;;;;6.70;99.90;;;;;;5000332;28;19925;-70
2022/04/04 12:47:59;;;;;;;;;;;6.70;99.90;;;;;;5001391;28;20385;-71
2022/04/04 12:50:37;;;;;;;;;;;6.70;99.90;;;;;;4995479;28;19962;-72
2022/04/04 12:53:04;;;;;;;;;;;6.70;99.90;;;;;;5001205;28;19933;-71
2022/04/04 12:55:31;;;;;;;;;;;6.70;99.90;;;;;;4998206;28;19991;-70
2022/04/04 12:58:14;;;;;;;;;;;6.70;99.90;;;;;;5005456;28;19979;-71
2022/04/04 13:00:41;;;;;;;;;;;6.60;99.90;;;;;;4999018;28;20040;-70
2022/04/04 13:03:18;;;;;;;;;;;6.60;99.90;;;;;;4985947;28;20367;-72
2022/04/04 13:05:46;;;;;;;;;;;6.60;99.90;;;;;;4991041;28;20016;-69
2022/04/04 13:08:17;;;;;;;;;;;6.50;99.90;;;;;;4992305;28;20025;-68
2022/04/04 13:10:44;;;;;;;;;;;5.70;99.90;;;;;;4989792;28;19936;-68
2022/04/04 13:13:15;;;;;;;;;;;6.50;99.90;;;;;;4991717;28;19930;-70
2022/04/04 13:15:42;;;;;;;;;;;6.50;99.90;;;;;;4975274;28;19930;-70
2022/04/04 13:18:10;;;;;;;;;;;6.50;99.90;;;;;;4994263;28;19981;-70
2022/04/04 13:20:36;;;;;;;;;;;6.50;99.90;;;;;;5002643;28;19937;-70
2022/04/04 13:23:03;;;;;;;;;;;6.40;99.90;;;;;;5005059;28;20020;-70
2022/04/04 13:25:30;;;;;;;;;;;6.50;99.90;;;;;;4996668;28;20006;-70
2022/04/04 13:27:57;;;;;;;;;;;6.50;99.90;;;;;;5004333;28;20437;-72
2022/04/04 13:30:25;;;;;;;;;;;6.60;99.90;;;;;;5002392;28;19932;-72
2022/04/04 13:32:52;;;;;;;;;;;6.60;99.90;;;;;;4999534;28;19925;-71
2022/04/04 13:35:18;;;;;;;;;;;6.60;99.90;;;;;;4996640;28;19948;-71
2022/04/04 13:37:45;;;;;;;;;;;6.50;99.90;;;;;;4982434;28;20375;-71
2022/04/04 13:40:12;;;;;;;;;;;6.40;99.90;;;;;;5001704;28;20064;-71
2022/04/04 13:42:39;;;;;;;;;;;6.40;99.90;;;;;;5001388;28;19933;-71
2022/04/04 13:45:07;;;;;;;;;;;6.30;99.90;;;;;;5003615;28;19926;-70
2022/04/04 13:47:35;;;;;;;;;;;6.30;99.90;;;;;;5000273;28;19929;-70
2022/04/04 13:50:02;;;;;;;;;;;6.30;99.90;;;;;;4976412;28;19933;-69
2022/04/04 13:52:29;;;;;;;;;;;6.30;99.90;;;;;;4991378;28;19977;-70
2022/04/04 13:54:55;;;;;;;;;;;6.30;99.90;;;;;;4991889;28;20299;-68
2022/04/04 13:57:22;;;;;;;;;;;6.20;99.90;;;;;;5001751;28;20375;-68
2022/04/04 13:59:49;;;;;;;;;;;7.90;99.90;;;;;;4997885;28;19945;-67
2022/04/04 14:02:17;;;;;;;;;;;6.30;99.90;;;;;;5000110;28;20339;-68
2022/04/04 14:04:45;;;;;;;;;;;6.40;99.90;;;;;;4997923;28;19938;-68
2022/04/04 14:09:55;;;;;;;;;;;6.40;99.90;;;;;;5105880;22;19929;-67
2022/04/04 14:12:23;;;;;;;;;;;6.40;99.90;;;;;;5010697;28;19940;-68
2022/04/04 14:14:50;;;;;;;;;;;8.10;99.90;;;;;;5009051;28;19930;-70
2022/04/04 14:17:17;;;;;;;;;;;6.40;99.90;;;;;;5002262;28;20306;-71
2022/04/04 14:19:44;;;;;;;;;;;6.50;99.90;;;;;;4991143;28;19980;-68
2022/04/04 14:24:40;;;;;;;;;;;6.40;99.90;;;;;;5006265;28;19936;-70
2022/04/04 14:27:07;;;;;;;;;;;7.10;99.90;;;;;;5004208;28;19969;-70
2022/04/04 14:29:33;;;;;;;;;;;7.50;99.90;;;;;;5008646;28;19933;-71
2022/04/04 14:32:00;;;;;;;;;;;6.40;99.90;;;;;;5011966;28;20096;-71
2022/04/04 14:34:27;;;;;;;;;;;6.40;99.90;;;;;;5006222;28;20031;-71
2022/04/04 14:36:54;;;;;;;;;;;6.30;99.90;;;;;;5004618;28;20272;-70
2022/04/04 14:39:21;;;;;;;;;;;7.80;99.90;;;;;;5008891;28;19925;-71
2022/04/04 14:41:49;;;;;;;;;;;6.30;99.90;;;;;;5002454;28;19945;-71
2022/04/04 14:44:16;;;;;;;;;;;6.30;99.90;;;;;;5004958;28;19929;-71
2022/04/04 14:46:43;;;;;;;;;;;6.30;99.90;;;;;;5006262;28;20413;-71
2022/04/04 14:49:09;;;;;;;;;;;6.20;99.90;;;;;;5006295;28;19929;-71